GBGYH EGHH-EGHH
Flight info
| Callsign | GBGYH |
|---|---|
| Flight time | 1h 57m |
| Altitude | |
| Route | VFR |
| Aircraft | PA28 |
Departure
| Time | 2026-05-01 09:51 |
|---|---|
| Airport | Bournemouth Airport (EGHH) |
Arrival
| Time | 2026-05-01 11:48 |
|---|---|
| Airport | Bournemouth Airport (EGHH) |
| Time | Latitude | Longitude | Altitude | Speed | Heading |
|---|---|---|---|---|---|
| 2026-05-01 09:51 | 50.73150 | -1.82881 | 1581 ft | 135 kts | 65° |
| 2026-05-01 09:51 | 50.73565 | -1.81567 | 1591 ft | 134 kts | 66° |
| 2026-05-01 09:51 | 50.73982 | -1.80258 | 1587 ft | 132 kts | 65° |
| 2026-05-01 09:51 | 50.74398 | -1.78983 | 1588 ft | 130 kts | 64° |
| 2026-05-01 09:52 | 50.74810 | -1.77721 | 1587 ft | 129 kts | 66° |
| 2026-05-01 09:52 | 50.75212 | -1.76464 | 1590 ft | 128 kts | 65° |
| 2026-05-01 09:52 | 50.75616 | -1.75197 | 1584 ft | 129 kts | 66° |
| 2026-05-01 09:52 | 50.76296 | -1.74408 | 1578 ft | 128 kts | 2° |
| 2026-05-01 09:53 | 50.77111 | -1.74842 | 1581 ft | 123 kts | 329° |
| 2026-05-01 09:53 | 50.77891 | -1.75397 | 1490 ft | 124 kts | 332° |
| 2026-05-01 09:53 | 50.78674 | -1.75966 | 1394 ft | 124 kts | 333° |
| 2026-05-01 09:53 | 50.79461 | -1.76561 | 1299 ft | 127 kts | 331° |
| 2026-05-01 09:54 | 50.79604 | -1.77659 | 1137 ft | 121 kts | 240° |
| 2026-05-01 09:54 | 50.79214 | -1.78828 | 916 ft | 115 kts | 239° |
| 2026-05-01 09:54 | 50.78882 | -1.79933 | 830 ft | 103 kts | 244° |
| 2026-05-01 09:54 | 50.78605 | -1.80932 | 244 ft | 103 kts | 241° |
| 2026-05-01 09:55 | 50.78410 | -1.81835 | 122 ft | 76 kts | 250° |
| 2026-05-01 09:55 | 50.78288 | -1.82566 | 67 ft | 65 kts | 249° |
| 2026-05-01 09:55 | 50.78179 | -1.83225 | 40 ft | 56 kts | 251° |
| 2026-05-01 09:55 | 50.78073 | -1.83891 | 42 ft | 74 kts | 249° |
| 2026-05-01 09:56 | 50.77932 | -1.84694 | 193 ft | 75 kts | 250° |
| 2026-05-01 09:56 | 50.77804 | -1.85506 | 299 ft | 82 kts | 271° |
| 2026-05-01 09:56 | 50.78049 | -1.86371 | 379 ft | 84 kts | 289° |
| 2026-05-01 09:56 | 50.78274 | -1.87175 | 485 ft | 74 kts | 289° |
| 2026-05-01 09:57 | 50.78501 | -1.87863 | 614 ft | 71 kts | 306° |
| 2026-05-01 09:57 | 50.78979 | -1.88151 | 738 ft | 78 kts | 339° |
| 2026-05-01 09:57 | 50.79496 | -1.88421 | 901 ft | 80 kts | 339° |
| 2026-05-01 09:57 | 50.80105 | -1.88674 | 996 ft | 104 kts | 355° |
| 2026-05-01 09:58 | 50.80678 | -1.88139 | 994 ft | 120 kts | 57° |
| 2026-05-01 09:58 | 50.81017 | -1.86912 | 1007 ft | 126 kts | 86° |
| 2026-05-01 09:58 | 50.81095 | -1.85508 | 995 ft | 130 kts | 89° |
| 2026-05-01 09:58 | 50.81196 | -1.84117 | 1005 ft | 127 kts | 86° |
| 2026-05-01 09:59 | 50.81292 | -1.82698 | 998 ft | 134 kts | 88° |
| 2026-05-01 09:59 | 50.81402 | -1.81243 | 991 ft | 131 kts | 86° |
| 2026-05-01 09:59 | 50.81496 | -1.79803 | 997 ft | 132 kts | 86° |
| 2026-05-01 09:59 | 50.81387 | -1.78416 | 984 ft | 130 kts | 126° |
| 2026-05-01 10:00 | 50.80622 | -1.77848 | 987 ft | 121 kts | 176° |
| 2026-05-01 10:00 | 50.79825 | -1.77992 | 989 ft | 119 kts | 211° |
| 2026-05-01 10:00 | 50.79328 | -1.79056 | 955 ft | 121 kts | 233° |
| 2026-05-01 10:00 | 50.78804 | -1.80283 | 609 ft | 143 kts | 239° |
| 2026-05-01 10:01 | 50.78424 | -1.81776 | 279 ft | 145 kts | 250° |
| 2026-05-01 10:01 | 50.78206 | -1.83063 | 46 ft | 100 kts | 250° |
| 2026-05-01 10:01 | 50.78061 | -1.83940 | 41 ft | 70 kts | 249° |
| 2026-05-01 10:01 | 50.77948 | -1.84701 | 72 ft | 81 kts | 270° |
| 2026-05-01 10:02 | 50.77852 | -1.85614 | 221 ft | 84 kts | 262° |
| 2026-05-01 10:02 | 50.77713 | -1.86518 | 413 ft | 83 kts | 253° |
| 2026-05-01 10:02 | 50.77590 | -1.87400 | 637 ft | 81 kts | 252° |
| 2026-05-01 10:02 | 50.77446 | -1.88240 | 887 ft | 81 kts | 246° |
| 2026-05-01 10:03 | 50.77277 | -1.89130 | 1025 ft | 92 kts | 257° |
| 2026-05-01 10:03 | 50.77171 | -1.90197 | 1071 ft | 103 kts | 257° |
| 2026-05-01 10:03 | 50.77053 | -1.91306 | 1047 ft | 103 kts | 258° |
| 2026-05-01 10:03 | 50.76926 | -1.92418 | 1031 ft | 105 kts | 259° |
| 2026-05-01 10:04 | 50.77221 | -1.93423 | 990 ft | 110 kts | 323° |
| 2026-05-01 10:04 | 50.77937 | -1.93768 | 989 ft | 114 kts | 10° |
| 2026-05-01 10:04 | 50.78650 | -1.93238 | 994 ft | 113 kts | 34° |
| 2026-05-01 10:04 | 50.79151 | -1.92321 | 989 ft | 111 kts | 65° |
| 2026-05-01 10:05 | 50.79536 | -1.91256 | 993 ft | 112 kts | 63° |
| 2026-05-01 10:05 | 50.79934 | -1.90199 | 990 ft | 111 kts | 61° |
| 2026-05-01 10:05 | 50.80321 | -1.89156 | 985 ft | 109 kts | 62° |
| 2026-05-01 10:05 | 50.80707 | -1.88127 | 977 ft | 107 kts | 62° |
| 2026-05-01 10:06 | 50.81084 | -1.87109 | 985 ft | 108 kts | 63° |
| 2026-05-01 10:06 | 50.81411 | -1.86064 | 989 ft | 104 kts | 68° |
| 2026-05-01 10:06 | 50.81715 | -1.85041 | 985 ft | 101 kts | 68° |
| 2026-05-01 10:06 | 50.82007 | -1.84003 | 984 ft | 105 kts | 69° |
| 2026-05-01 10:07 | 50.82292 | -1.82991 | 989 ft | 101 kts | 68° |
| 2026-05-01 10:07 | 50.82585 | -1.81950 | 990 ft | 106 kts | 69° |
| 2026-05-01 10:07 | 50.82906 | -1.80918 | 996 ft | 105 kts | 68° |
| 2026-05-01 10:07 | 50.83207 | -1.79856 | 990 ft | 106 kts | 69° |
| 2026-05-01 10:08 | 50.82534 | -1.78516 | 982 ft | 92 kts | 166° |
| 2026-05-01 10:08 | 50.81920 | -1.78227 | 984 ft | 93 kts | 166° |
| 2026-05-01 10:08 | 50.81292 | -1.77940 | 988 ft | 95 kts | 166° |
| 2026-05-01 10:09 | 50.80643 | -1.77825 | 971 ft | 95 kts | 203° |
| 2026-05-01 10:09 | 50.80343 | -1.78681 | 989 ft | 90 kts | 242° |
| 2026-05-01 10:09 | 50.79929 | -1.79514 | 814 ft | 104 kts | 216° |
| 2026-05-01 10:09 | 50.79322 | -1.80135 | 634 ft | 102 kts | 217° |
| 2026-05-01 10:10 | 50.78839 | -1.80960 | 494 ft | 98 kts | 227° |
| 2026-05-01 10:10 | 50.78484 | -1.81859 | 284 ft | 98 kts | 240° |
| 2026-05-01 10:10 | 50.78105 | -1.83658 | 39 ft | 63 kts | 258° |
| 2026-05-01 10:11 | 50.78005 | -1.84497 | 183 ft | 82 kts | 253° |
| 2026-05-01 10:11 | 50.77953 | -1.85306 | 522 ft | 71 kts | 255° |
| 2026-05-01 10:11 | 50.77889 | -1.86212 | 651 ft | 92 kts | 259° |
| 2026-05-01 10:11 | 50.77805 | -1.87249 | 803 ft | 100 kts | 258° |
| 2026-05-01 10:12 | 50.77706 | -1.88389 | 902 ft | 113 kts | 259° |
| 2026-05-01 10:12 | 50.77627 | -1.89260 | 898 ft | 123 kts | 259° |
| 2026-05-01 10:12 | 50.77507 | -1.92480 | 875 ft | 135 kts | 298° |
| 2026-05-01 10:13 | 50.78335 | -1.93206 | 871 ft | 141 kts | 352° |
| 2026-05-01 10:13 | 50.79303 | -1.93391 | 884 ft | 139 kts | 352° |
| 2026-05-01 10:13 | 50.80253 | -1.93299 | 869 ft | 139 kts | 28° |
| 2026-05-01 10:14 | 50.80866 | -1.91107 | 876 ft | 135 kts | 84° |
| 2026-05-01 10:14 | 50.81025 | -1.89662 | 883 ft | 133 kts | 83° |
| 2026-05-01 10:14 | 50.81184 | -1.88237 | 888 ft | 130 kts | 81° |
| 2026-05-01 10:14 | 50.81340 | -1.86832 | 891 ft | 129 kts | 84° |
| 2026-05-01 10:15 | 50.81511 | -1.85456 | 883 ft | 125 kts | 81° |
| 2026-05-01 10:15 | 50.81623 | -1.84107 | 889 ft | 124 kts | 98° |
| 2026-05-01 10:15 | 50.81108 | -1.83158 | 888 ft | 118 kts | 166° |
| 2026-05-01 10:15 | 50.80275 | -1.83053 | 891 ft | 122 kts | 176° |
| 2026-05-01 10:16 | 50.79432 | -1.82959 | 886 ft | 119 kts | 175° |
| 2026-05-01 10:16 | 50.78617 | -1.82877 | 910 ft | 117 kts | 176° |
| 2026-05-01 10:16 | 50.77061 | -1.82677 | 1152 ft | 109 kts | 176° |
| 2026-05-01 10:17 | 50.76308 | -1.82570 | 1277 ft | 108 kts | 176° |
| 2026-05-01 10:17 | 50.74842 | -1.82336 | 1515 ft | 101 kts | 176° |
| 2026-05-01 10:17 | 50.74127 | -1.82205 | 1583 ft | 108 kts | 175° |
| 2026-05-01 10:18 | 50.72537 | -1.81931 | 1600 ft | 122 kts | 175° |
| 2026-05-01 10:18 | 50.71683 | -1.81777 | 1598 ft | 124 kts | 175° |
| 2026-05-01 10:18 | 50.70828 | -1.81631 | 1602 ft | 124 kts | 175° |
| 2026-05-01 10:19 | 50.69966 | -1.81486 | 1601 ft | 124 kts | 175° |
| 2026-05-01 10:19 | 50.69108 | -1.81345 | 1602 ft | 124 kts | 175° |
| 2026-05-01 10:19 | 50.68244 | -1.81207 | 1602 ft | 125 kts | 175° |
| 2026-05-01 10:20 | 50.66532 | -1.80938 | 1598 ft | 123 kts | 175° |
| 2026-05-01 10:20 | 50.65671 | -1.80787 | 1595 ft | 125 kts | 175° |
| 2026-05-01 10:20 | 50.64818 | -1.80624 | 1598 ft | 123 kts | 175° |
| 2026-05-01 10:20 | 50.63976 | -1.80476 | 1595 ft | 123 kts | 175° |
| 2026-05-01 10:21 | 50.63128 | -1.80310 | 1596 ft | 123 kts | 175° |
| 2026-05-01 10:21 | 50.61413 | -1.79933 | 1598 ft | 124 kts | 175° |
| 2026-05-01 10:21 | 50.60561 | -1.79737 | 1597 ft | 123 kts | 175° |
| 2026-05-01 10:22 | 50.58881 | -1.79341 | 1600 ft | 121 kts | 175° |
| 2026-05-01 10:22 | 50.57197 | -1.78918 | 1598 ft | 123 kts | 174° |
| 2026-05-01 10:23 | 50.56347 | -1.78710 | 1601 ft | 124 kts | 175° |
| 2026-05-01 10:23 | 50.54458 | -1.78367 | 1608 ft | 143 kts | 193° |
| 2026-05-01 10:23 | 50.53521 | -1.78903 | 1611 ft | 145 kts | 204° |
| 2026-05-01 10:24 | 50.51642 | -1.80113 | 1612 ft | 148 kts | 204° |
| 2026-05-01 10:24 | 50.49728 | -1.81350 | 1616 ft | 148 kts | 203° |
| 2026-05-01 10:25 | 50.47814 | -1.82591 | 1613 ft | 148 kts | 204° |
| 2026-05-01 10:25 | 50.45923 | -1.83812 | 1613 ft | 146 kts | 204° |
| 2026-05-01 10:26 | 50.44977 | -1.84421 | 1614 ft | 147 kts | 204° |
| 2026-05-01 10:26 | 50.44028 | -1.85027 | 1616 ft | 148 kts | 203° |
| 2026-05-01 10:26 | 50.42141 | -1.86228 | 1615 ft | 145 kts | 204° |
| 2026-05-01 10:27 | 50.40277 | -1.87406 | 1619 ft | 145 kts | 204° |
| 2026-05-01 10:27 | 50.38393 | -1.88594 | 1618 ft | 146 kts | 204° |
| 2026-05-01 10:28 | 50.37448 | -1.89188 | 1619 ft | 146 kts | 203° |
| 2026-05-01 10:28 | 50.35567 | -1.90363 | 1618 ft | 146 kts | 203° |
| 2026-05-01 10:28 | 50.34616 | -1.90955 | 1618 ft | 148 kts | 203° |
| 2026-05-01 10:29 | 50.32708 | -1.92152 | 1618 ft | 147 kts | 203° |
| 2026-05-01 10:29 | 50.31758 | -1.92751 | 1620 ft | 147 kts | 204° |
| 2026-05-01 10:30 | 50.29859 | -1.93947 | 1626 ft | 146 kts | 203° |
| 2026-05-01 10:30 | 50.27961 | -1.95115 | 1622 ft | 145 kts | 203° |
| 2026-05-01 10:31 | 50.26082 | -1.96261 | 1621 ft | 145 kts | 202° |
| 2026-05-01 10:31 | 50.24196 | -1.97394 | 1626 ft | 146 kts | 202° |
| 2026-05-01 10:32 | 50.22298 | -1.98538 | 1623 ft | 145 kts | 203° |
| 2026-05-01 10:32 | 50.21356 | -1.99104 | 1630 ft | 146 kts | 203° |
| 2026-05-01 10:32 | 50.19465 | -2.00234 | 1628 ft | 146 kts | 203° |
| 2026-05-01 10:33 | 50.17565 | -2.01366 | 1630 ft | 146 kts | 203° |
| 2026-05-01 10:33 | 50.15704 | -2.02455 | 1615 ft | 140 kts | 202° |
| 2026-05-01 10:34 | 50.14800 | -2.03002 | 1615 ft | 139 kts | 203° |
| 2026-05-01 10:34 | 50.13894 | -2.03553 | 1614 ft | 139 kts | 203° |
| 2026-05-01 10:34 | 50.12995 | -2.04088 | 1620 ft | 138 kts | 203° |
| 2026-05-01 10:35 | 50.11200 | -2.05144 | 1621 ft | 137 kts | 202° |
| 2026-05-01 10:35 | 50.10310 | -2.05670 | 1622 ft | 136 kts | 202° |
| 2026-05-01 10:35 | 50.09419 | -2.06206 | 1623 ft | 137 kts | 203° |
| 2026-05-01 10:35 | 50.08533 | -2.06715 | 1621 ft | 137 kts | 201° |
| 2026-05-01 10:36 | 50.06753 | -2.07759 | 1622 ft | 137 kts | 202° |
| 2026-05-01 10:36 | 50.05861 | -2.08266 | 1621 ft | 136 kts | 202° |
| 2026-05-01 10:36 | 50.04970 | -2.08775 | 1623 ft | 137 kts | 202° |
| 2026-05-01 10:37 | 50.04074 | -2.09281 | 1620 ft | 136 kts | 202° |
| 2026-05-01 10:37 | 50.02293 | -2.10309 | 1627 ft | 138 kts | 202° |
| 2026-05-01 10:37 | 50.01394 | -2.10817 | 1627 ft | 138 kts | 202° |
| 2026-05-01 10:38 | 50.00493 | -2.11320 | 1629 ft | 137 kts | 202° |
| 2026-05-01 10:38 | 49.99596 | -2.11822 | 1632 ft | 137 kts | 202° |
| 2026-05-01 10:38 | 49.98710 | -2.12316 | 1630 ft | 137 kts | 202° |
| 2026-05-01 10:38 | 49.97815 | -2.12819 | 1634 ft | 137 kts | 202° |
| 2026-05-01 10:39 | 49.96917 | -2.13331 | 1630 ft | 138 kts | 202° |
| 2026-05-01 10:39 | 49.96016 | -2.13830 | 1633 ft | 137 kts | 201° |
| 2026-05-01 10:39 | 49.95121 | -2.14344 | 1631 ft | 137 kts | 202° |
| 2026-05-01 10:39 | 49.94224 | -2.14849 | 1629 ft | 138 kts | 202° |
| 2026-05-01 10:40 | 49.93321 | -2.15353 | 1629 ft | 138 kts | 202° |
| 2026-05-01 10:40 | 49.92417 | -2.15857 | 1629 ft | 138 kts | 202° |
| 2026-05-01 10:40 | 49.91513 | -2.16357 | 1623 ft | 138 kts | 201° |
| 2026-05-01 10:40 | 49.90606 | -2.16871 | 1620 ft | 139 kts | 202° |
| 2026-05-01 10:41 | 49.89697 | -2.17368 | 1619 ft | 138 kts | 201° |
| 2026-05-01 10:41 | 49.88790 | -2.17871 | 1617 ft | 138 kts | 202° |
| 2026-05-01 10:41 | 49.86983 | -2.18880 | 1616 ft | 138 kts | 202° |
| 2026-05-01 10:42 | 49.86082 | -2.19379 | 1618 ft | 138 kts | 202° |
| 2026-05-01 10:42 | 49.85173 | -2.19882 | 1615 ft | 139 kts | 202° |
| 2026-05-01 10:42 | 49.84269 | -2.20376 | 1617 ft | 137 kts | 201° |
| 2026-05-01 10:42 | 49.83367 | -2.20872 | 1619 ft | 138 kts | 202° |
| 2026-05-01 10:43 | 49.82460 | -2.21364 | 1620 ft | 138 kts | 201° |
| 2026-05-01 10:43 | 49.81568 | -2.21858 | 1620 ft | 139 kts | 201° |
| 2026-05-01 10:43 | 49.80654 | -2.22361 | 1620 ft | 140 kts | 201° |
| 2026-05-01 10:43 | 49.79740 | -2.22866 | 1620 ft | 139 kts | 201° |
| 2026-05-01 10:44 | 49.78826 | -2.23377 | 1616 ft | 139 kts | 201° |
| 2026-05-01 10:44 | 49.77925 | -2.23881 | 1617 ft | 137 kts | 201° |
| 2026-05-01 10:44 | 49.77024 | -2.24371 | 1616 ft | 138 kts | 201° |
| 2026-05-01 10:44 | 49.76123 | -2.24866 | 1616 ft | 137 kts | 201° |
| 2026-05-01 10:45 | 49.75221 | -2.25363 | 1617 ft | 137 kts | 201° |
| 2026-05-01 10:45 | 49.74315 | -2.25857 | 1624 ft | 138 kts | 202° |
| 2026-05-01 10:45 | 49.73405 | -2.26342 | 1624 ft | 138 kts | 201° |
| 2026-05-01 10:45 | 49.72511 | -2.26826 | 1623 ft | 138 kts | 202° |
| 2026-05-01 10:46 | 49.71604 | -2.27324 | 1617 ft | 139 kts | 201° |
| 2026-05-01 10:46 | 49.70697 | -2.27833 | 1620 ft | 139 kts | 201° |
| 2026-05-01 10:46 | 49.69790 | -2.28343 | 1618 ft | 139 kts | 201° |
| 2026-05-01 10:46 | 49.68886 | -2.28845 | 1618 ft | 137 kts | 201° |
| 2026-05-01 10:47 | 49.67984 | -2.29347 | 1617 ft | 138 kts | 201° |
| 2026-05-01 10:47 | 49.67077 | -2.29843 | 1619 ft | 138 kts | 201° |
| 2026-05-01 10:47 | 49.66165 | -2.30326 | 1616 ft | 139 kts | 201° |
| 2026-05-01 10:47 | 49.65255 | -2.30810 | 1617 ft | 138 kts | 200° |
| 2026-05-01 10:48 | 49.64348 | -2.31298 | 1618 ft | 137 kts | 201° |
| 2026-05-01 10:48 | 49.63441 | -2.31770 | 1616 ft | 137 kts | 200° |
| 2026-05-01 10:48 | 49.62542 | -2.32250 | 1616 ft | 136 kts | 201° |
| 2026-05-01 10:48 | 49.61642 | -2.32724 | 1620 ft | 137 kts | 201° |
| 2026-05-01 10:49 | 49.60749 | -2.33191 | 1628 ft | 138 kts | 200° |
| 2026-05-01 10:49 | 49.59835 | -2.33686 | 1620 ft | 139 kts | 201° |
| 2026-05-01 10:49 | 49.58923 | -2.34186 | 1623 ft | 139 kts | 201° |
| 2026-05-01 10:49 | 49.58011 | -2.34679 | 1622 ft | 138 kts | 200° |
| 2026-05-01 10:50 | 49.57347 | -2.35636 | 1617 ft | 137 kts | 249° |
| 2026-05-01 10:50 | 49.57160 | -2.37072 | 1622 ft | 136 kts | 258° |
| 2026-05-01 10:50 | 49.56985 | -2.38518 | 1627 ft | 138 kts | 257° |
| 2026-05-01 10:50 | 49.56809 | -2.39976 | 1631 ft | 139 kts | 257° |
| 2026-05-01 10:51 | 49.56632 | -2.41441 | 1629 ft | 139 kts | 258° |
| 2026-05-01 10:51 | 49.56456 | -2.42903 | 1631 ft | 139 kts | 257° |
| 2026-05-01 10:51 | 49.56280 | -2.44366 | 1635 ft | 138 kts | 257° |
| 2026-05-01 10:51 | 49.56108 | -2.45820 | 1636 ft | 138 kts | 257° |
| 2026-05-01 10:52 | 49.55929 | -2.47273 | 1631 ft | 138 kts | 257° |
| 2026-05-01 10:52 | 49.55749 | -2.48732 | 1637 ft | 139 kts | 258° |
| 2026-05-01 10:52 | 49.55560 | -2.50203 | 1634 ft | 140 kts | 257° |
| 2026-05-01 10:52 | 49.55379 | -2.51664 | 1632 ft | 139 kts | 257° |
| 2026-05-01 10:53 | 49.55204 | -2.53133 | 1628 ft | 139 kts | 257° |
| 2026-05-01 10:53 | 49.55029 | -2.54599 | 1633 ft | 139 kts | 257° |
| 2026-05-01 10:53 | 49.54855 | -2.56063 | 1633 ft | 139 kts | 257° |
| 2026-05-01 10:53 | 49.54628 | -2.57482 | 1620 ft | 137 kts | 241° |
| 2026-05-01 10:54 | 49.53863 | -2.58296 | 1615 ft | 137 kts | 201° |
| 2026-05-01 10:54 | 49.52933 | -2.58655 | 1615 ft | 139 kts | 187° |
| 2026-05-01 10:54 | 49.51979 | -2.58380 | 1606 ft | 141 kts | 167° |
| 2026-05-01 10:54 | 49.51018 | -2.57954 | 1518 ft | 145 kts | 167° |
| 2026-05-01 10:55 | 49.50112 | -2.57500 | 1353 ft | 133 kts | 154° |
| 2026-05-01 10:55 | 49.49414 | -2.56575 | 1183 ft | 132 kts | 140° |
| 2026-05-01 10:55 | 49.48735 | -2.55618 | 1024 ft | 132 kts | 141° |
| 2026-05-01 10:55 | 49.48055 | -2.54692 | 957 ft | 124 kts | 149° |
| 2026-05-01 10:56 | 49.47276 | -2.54587 | 962 ft | 111 kts | 195° |
| 2026-05-01 10:56 | 49.46541 | -2.54788 | 961 ft | 105 kts | 194° |
| 2026-05-01 10:56 | 49.45832 | -2.55024 | 961 ft | 103 kts | 208° |
| 2026-05-01 10:56 | 49.45203 | -2.55535 | 940 ft | 102 kts | 213° |
| 2026-05-01 10:57 | 49.44639 | -2.56179 | 823 ft | 98 kts | 230° |
| 2026-05-01 10:57 | 49.44226 | -2.56882 | 692 ft | 84 kts | 235° |
| 2026-05-01 10:57 | 49.43914 | -2.57562 | 621 ft | 74 kts | 246° |
| 2026-05-01 10:57 | 49.43706 | -2.58288 | 531 ft | 74 kts | 253° |
| 2026-05-01 10:58 | 49.43544 | -2.59013 | 417 ft | 70 kts | 263° |
| 2026-05-01 10:58 | 49.43509 | -2.59749 | 329 ft | 67 kts | 270° |
| 2026-05-01 10:58 | 49.43495 | -2.60385 | 305 ft | 54 kts | 266° |
| 2026-05-01 10:58 | 49.43439 | -2.60660 | 301 ft | 8 kts | 159° |
| 2026-05-01 10:59 | 49.43370 | -2.60653 | 293 ft | 14 kts | 180° |
| 2026-05-01 10:59 | 49.43327 | -2.60523 | 288 ft | 16 kts | 91° |
| 2026-05-01 10:59 | 49.43330 | -2.60354 | 288 ft | 15 kts | 87° |
| 2026-05-01 10:59 | 49.43334 | -2.60217 | 293 ft | 5 kts | 87° |
| 2026-05-01 11:00 | 49.43334 | -2.60215 | 293 ft | 1 kts | 88° |
| 2026-05-01 11:00 | 49.43301 | -2.60202 | 293 ft | 5 kts | 173° |
| 2026-05-01 11:00 | 49.43292 | -2.60188 | 291 ft | 0 kts | 79° |
| 2026-05-01 11:08 | 49.43296 | -2.60185 | 291 ft | 7 kts | 345° |
| 2026-05-01 11:09 | 49.43339 | -2.60125 | 301 ft | 23 kts | 89° |
| 2026-05-01 11:09 | 49.43351 | -2.59761 | 323 ft | 42 kts | 72° |
| 2026-05-01 11:09 | 49.43366 | -2.59443 | 328 ft | 23 kts | 88° |
| 2026-05-01 11:10 | 49.43521 | -2.59230 | 328 ft | 17 kts | 288° |
| 2026-05-01 11:10 | 49.43517 | -2.59502 | 328 ft | 56 kts | 266° |
| 2026-05-01 11:10 | 49.43503 | -2.60260 | 533 ft | 79 kts | 272° |
| 2026-05-01 11:10 | 49.43695 | -2.61028 | 795 ft | 97 kts | 333° |
| 2026-05-01 11:11 | 49.44391 | -2.60755 | 1146 ft | 103 kts | 27° |
| 2026-05-01 11:11 | 49.45008 | -2.60576 | 1583 ft | 89 kts | 337° |
| 2026-05-01 11:11 | 49.45742 | -2.60698 | 1649 ft | 118 kts | 350° |
| 2026-05-01 11:11 | 49.46562 | -2.60786 | 1890 ft | 117 kts | 350° |
| 2026-05-01 11:12 | 49.47363 | -2.60904 | 2125 ft | 115 kts | 349° |
| 2026-05-01 11:12 | 49.48161 | -2.61035 | 2347 ft | 115 kts | 349° |
| 2026-05-01 11:12 | 49.48956 | -2.61180 | 2578 ft | 116 kts | 350° |
| 2026-05-01 11:12 | 49.49770 | -2.61357 | 2816 ft | 120 kts | 350° |
| 2026-05-01 11:13 | 49.50605 | -2.61545 | 3047 ft | 123 kts | 349° |
| 2026-05-01 11:13 | 49.51458 | -2.61735 | 3276 ft | 124 kts | 349° |
| 2026-05-01 11:13 | 49.52309 | -2.61916 | 3506 ft | 123 kts | 349° |
| 2026-05-01 11:13 | 49.53154 | -2.62083 | 3727 ft | 122 kts | 349° |
| 2026-05-01 11:14 | 49.53993 | -2.62245 | 3950 ft | 121 kts | 349° |
| 2026-05-01 11:14 | 49.54816 | -2.62403 | 4171 ft | 120 kts | 349° |
| 2026-05-01 11:14 | 49.55643 | -2.62563 | 4397 ft | 119 kts | 349° |
| 2026-05-01 11:14 | 49.56463 | -2.62721 | 4623 ft | 119 kts | 349° |
| 2026-05-01 11:15 | 49.57280 | -2.62879 | 4854 ft | 118 kts | 349° |
| 2026-05-01 11:15 | 49.58092 | -2.63035 | 5076 ft | 117 kts | 349° |
| 2026-05-01 11:15 | 49.58897 | -2.63191 | 5295 ft | 116 kts | 349° |
| 2026-05-01 11:15 | 49.59694 | -2.63345 | 5513 ft | 115 kts | 349° |
| 2026-05-01 11:16 | 49.60518 | -2.63509 | 5608 ft | 128 kts | 349° |
| 2026-05-01 11:16 | 49.61447 | -2.63705 | 5618 ft | 141 kts | 349° |
| 2026-05-01 11:16 | 49.62449 | -2.63919 | 5619 ft | 149 kts | 349° |
| 2026-05-01 11:16 | 49.63490 | -2.64146 | 5623 ft | 153 kts | 349° |
| 2026-05-01 11:17 | 49.64539 | -2.64377 | 5620 ft | 155 kts | 349° |
| 2026-05-01 11:17 | 49.65615 | -2.64617 | 5625 ft | 156 kts | 349° |
| 2026-05-01 11:17 | 49.66693 | -2.64857 | 5623 ft | 156 kts | 349° |
| 2026-05-01 11:17 | 49.67770 | -2.65097 | 5621 ft | 156 kts | 349° |
| 2026-05-01 11:18 | 49.68845 | -2.65337 | 5620 ft | 156 kts | 349° |
| 2026-05-01 11:18 | 49.69922 | -2.65583 | 5621 ft | 156 kts | 349° |
| 2026-05-01 11:18 | 49.70998 | -2.65829 | 5622 ft | 156 kts | 349° |
| 2026-05-01 11:18 | 49.72073 | -2.66079 | 5621 ft | 157 kts | 349° |
| 2026-05-01 11:19 | 49.73149 | -2.66328 | 5622 ft | 156 kts | 349° |
| 2026-05-01 11:19 | 49.74223 | -2.66577 | 5623 ft | 156 kts | 349° |
| 2026-05-01 11:19 | 49.75295 | -2.66828 | 5622 ft | 156 kts | 349° |
| 2026-05-01 11:19 | 49.76368 | -2.67081 | 5620 ft | 156 kts | 349° |
| 2026-05-01 11:20 | 49.77429 | -2.67329 | 5621 ft | 156 kts | 349° |
| 2026-05-01 11:20 | 49.78502 | -2.67581 | 5621 ft | 156 kts | 349° |
| 2026-05-01 11:20 | 49.79575 | -2.67833 | 5621 ft | 156 kts | 349° |
| 2026-05-01 11:20 | 49.80648 | -2.68089 | 5621 ft | 156 kts | 349° |
| 2026-05-01 11:21 | 49.81720 | -2.68344 | 5620 ft | 156 kts | 349° |
| 2026-05-01 11:21 | 49.82795 | -2.68600 | 5621 ft | 156 kts | 349° |
| 2026-05-01 11:21 | 49.83869 | -2.68855 | 5620 ft | 156 kts | 349° |
| 2026-05-01 11:21 | 49.84946 | -2.69113 | 5618 ft | 156 kts | 349° |
| 2026-05-01 11:22 | 49.86022 | -2.69370 | 5618 ft | 156 kts | 348° |
| 2026-05-01 11:22 | 49.87098 | -2.69630 | 5619 ft | 156 kts | 348° |
| 2026-05-01 11:22 | 49.88175 | -2.69888 | 5620 ft | 156 kts | 348° |
| 2026-05-01 11:22 | 49.89236 | -2.70144 | 5620 ft | 156 kts | 348° |
| 2026-05-01 11:23 | 49.90313 | -2.70401 | 5617 ft | 156 kts | 348° |
| 2026-05-01 11:23 | 49.91387 | -2.70664 | 5617 ft | 156 kts | 348° |
| 2026-05-01 11:23 | 49.92462 | -2.70929 | 5616 ft | 156 kts | 348° |
| 2026-05-01 11:23 | 49.93544 | -2.70941 | 5612 ft | 156 kts | 4° |
| 2026-05-01 11:24 | 49.94629 | -2.70808 | 5616 ft | 156 kts | 4° |
| 2026-05-01 11:24 | 49.95715 | -2.70682 | 5615 ft | 157 kts | 3° |
| 2026-05-01 11:24 | 49.97895 | -2.70440 | 5616 ft | 157 kts | 3° |
| 2026-05-01 11:25 | 49.98981 | -2.70319 | 5618 ft | 157 kts | 3° |
| 2026-05-01 11:25 | 50.01162 | -2.70075 | 5619 ft | 157 kts | 3° |
| 2026-05-01 11:25 | 50.02253 | -2.69954 | 5620 ft | 157 kts | 3° |
| 2026-05-01 11:26 | 50.03344 | -2.69830 | 5612 ft | 158 kts | 3° |
| 2026-05-01 11:26 | 50.05521 | -2.69470 | 5607 ft | 157 kts | 16° |
| 2026-05-01 11:26 | 50.06561 | -2.68965 | 5608 ft | 157 kts | 18° |
| 2026-05-01 11:27 | 50.07605 | -2.68456 | 5608 ft | 157 kts | 18° |
| 2026-05-01 11:27 | 50.08647 | -2.67951 | 5609 ft | 157 kts | 18° |
| 2026-05-01 11:27 | 50.09691 | -2.67448 | 5609 ft | 157 kts | 18° |
| 2026-05-01 11:27 | 50.10720 | -2.66948 | 5609 ft | 157 kts | 18° |
| 2026-05-01 11:28 | 50.11766 | -2.66442 | 5612 ft | 157 kts | 18° |
| 2026-05-01 11:28 | 50.12810 | -2.65942 | 5604 ft | 157 kts | 18° |
| 2026-05-01 11:28 | 50.13851 | -2.65439 | 5604 ft | 157 kts | 18° |
| 2026-05-01 11:29 | 50.15884 | -2.64254 | 5592 ft | 154 kts | 40° |
| 2026-05-01 11:29 | 50.16761 | -2.63291 | 5596 ft | 155 kts | 36° |
| 2026-05-01 11:29 | 50.18572 | -2.61458 | 5599 ft | 156 kts | 36° |
| 2026-05-01 11:30 | 50.19496 | -2.60524 | 5605 ft | 161 kts | 36° |
| 2026-05-01 11:30 | 50.20444 | -2.59562 | 5609 ft | 164 kts | 36° |
| 2026-05-01 11:30 | 50.21402 | -2.58587 | 5607 ft | 165 kts | 36° |
| 2026-05-01 11:30 | 50.22366 | -2.57611 | 5607 ft | 166 kts | 35° |
| 2026-05-01 11:31 | 50.23332 | -2.56629 | 5607 ft | 166 kts | 36° |
| 2026-05-01 11:31 | 50.24298 | -2.55648 | 5607 ft | 165 kts | 36° |
| 2026-05-01 11:31 | 50.25264 | -2.54673 | 5607 ft | 165 kts | 35° |
| 2026-05-01 11:31 | 50.26229 | -2.53698 | 5607 ft | 165 kts | 36° |
| 2026-05-01 11:32 | 50.27196 | -2.52720 | 5608 ft | 166 kts | 35° |
| 2026-05-01 11:32 | 50.28151 | -2.51751 | 5606 ft | 166 kts | 35° |
| 2026-05-01 11:32 | 50.29120 | -2.50768 | 5605 ft | 166 kts | 35° |
| 2026-05-01 11:32 | 50.30088 | -2.49787 | 5605 ft | 166 kts | 35° |
| 2026-05-01 11:33 | 50.31060 | -2.48803 | 5601 ft | 167 kts | 35° |
| 2026-05-01 11:33 | 50.32034 | -2.47820 | 5600 ft | 166 kts | 35° |
| 2026-05-01 11:33 | 50.33008 | -2.46838 | 5602 ft | 167 kts | 35° |
| 2026-05-01 11:33 | 50.33983 | -2.45854 | 5601 ft | 166 kts | 35° |
| 2026-05-01 11:34 | 50.34955 | -2.44871 | 5603 ft | 166 kts | 35° |
| 2026-05-01 11:34 | 50.35928 | -2.43893 | 5604 ft | 166 kts | 35° |
| 2026-05-01 11:34 | 50.36900 | -2.42916 | 5604 ft | 166 kts | 35° |
| 2026-05-01 11:34 | 50.37873 | -2.41936 | 5605 ft | 166 kts | 35° |
| 2026-05-01 11:35 | 50.38850 | -2.40955 | 5602 ft | 167 kts | 35° |
| 2026-05-01 11:35 | 50.39825 | -2.39974 | 5597 ft | 166 kts | 35° |
| 2026-05-01 11:35 | 50.40801 | -2.38999 | 5598 ft | 166 kts | 35° |
| 2026-05-01 11:35 | 50.41778 | -2.38027 | 5597 ft | 166 kts | 35° |
| 2026-05-01 11:36 | 50.42757 | -2.37056 | 5594 ft | 166 kts | 35° |
| 2026-05-01 11:36 | 50.43735 | -2.36082 | 5594 ft | 167 kts | 35° |
| 2026-05-01 11:36 | 50.44714 | -2.35107 | 5594 ft | 167 kts | 35° |
| 2026-05-01 11:36 | 50.45693 | -2.34136 | 5595 ft | 166 kts | 35° |
| 2026-05-01 11:37 | 50.46673 | -2.33165 | 5595 ft | 167 kts | 35° |
| 2026-05-01 11:37 | 50.47641 | -2.32206 | 5595 ft | 167 kts | 34° |
| 2026-05-01 11:37 | 50.48616 | -2.31229 | 5581 ft | 166 kts | 33° |
| 2026-05-01 11:37 | 50.49603 | -2.30313 | 5574 ft | 164 kts | 35° |
| 2026-05-01 11:38 | 50.50563 | -2.29330 | 5575 ft | 165 kts | 34° |
| 2026-05-01 11:38 | 50.51529 | -2.28357 | 5573 ft | 165 kts | 34° |
| 2026-05-01 11:38 | 50.52497 | -2.27390 | 5573 ft | 165 kts | 34° |
| 2026-05-01 11:38 | 50.53464 | -2.26427 | 5572 ft | 165 kts | 34° |
| 2026-05-01 11:39 | 50.54434 | -2.25463 | 5572 ft | 165 kts | 34° |
| 2026-05-01 11:39 | 50.55401 | -2.24501 | 5574 ft | 164 kts | 34° |
| 2026-05-01 11:39 | 50.56368 | -2.23544 | 5573 ft | 164 kts | 34° |
| 2026-05-01 11:39 | 50.57333 | -2.22588 | 5578 ft | 164 kts | 34° |
| 2026-05-01 11:40 | 50.58299 | -2.21630 | 5574 ft | 164 kts | 34° |
| 2026-05-01 11:40 | 50.59251 | -2.20686 | 5573 ft | 164 kts | 34° |
| 2026-05-01 11:40 | 50.60218 | -2.19729 | 5572 ft | 164 kts | 34° |
| 2026-05-01 11:40 | 50.61183 | -2.18771 | 5573 ft | 164 kts | 34° |
| 2026-05-01 11:41 | 50.62100 | -2.17864 | 5463 ft | 151 kts | 34° |
| 2026-05-01 11:41 | 50.62997 | -2.16973 | 5203 ft | 153 kts | 34° |
| 2026-05-01 11:41 | 50.63889 | -2.16096 | 4948 ft | 150 kts | 33° |
| 2026-05-01 11:41 | 50.64777 | -2.15218 | 4686 ft | 151 kts | 33° |
| 2026-05-01 11:42 | 50.65661 | -2.14335 | 4433 ft | 150 kts | 33° |
| 2026-05-01 11:42 | 50.66521 | -2.13410 | 4168 ft | 149 kts | 41° |
| 2026-05-01 11:42 | 50.67278 | -2.12312 | 3915 ft | 147 kts | 44° |
| 2026-05-01 11:42 | 50.68024 | -2.11206 | 3657 ft | 147 kts | 44° |
| 2026-05-01 11:43 | 50.68767 | -2.10103 | 3409 ft | 147 kts | 45° |
| 2026-05-01 11:43 | 50.69493 | -2.09019 | 3150 ft | 140 kts | 44° |
| 2026-05-01 11:43 | 50.70109 | -2.07878 | 2878 ft | 135 kts | 55° |
| 2026-05-01 11:44 | 50.71211 | -2.05520 | 2360 ft | 134 kts | 53° |
| 2026-05-01 11:44 | 50.71771 | -2.04344 | 2111 ft | 134 kts | 54° |
| 2026-05-01 11:44 | 50.72325 | -2.03162 | 1867 ft | 138 kts | 54° |
| 2026-05-01 11:44 | 50.72921 | -2.01979 | 1617 ft | 136 kts | 47° |
| 2026-05-01 11:45 | 50.73457 | -2.00817 | 1574 ft | 129 kts | 56° |
| 2026-05-01 11:45 | 50.73971 | -1.99630 | 1579 ft | 132 kts | 55° |
| 2026-05-01 11:45 | 50.74510 | -1.98441 | 1578 ft | 133 kts | 54° |
| 2026-05-01 11:45 | 50.75036 | -1.97235 | 1571 ft | 135 kts | 62° |
| 2026-05-01 11:46 | 50.75440 | -1.95876 | 1500 ft | 134 kts | 67° |
| 2026-05-01 11:46 | 50.75825 | -1.94579 | 1427 ft | 128 kts | 65° |
| 2026-05-01 11:46 | 50.76187 | -1.93321 | 1331 ft | 122 kts | 68° |
| 2026-05-01 11:46 | 50.76560 | -1.92132 | 1231 ft | 123 kts | 65° |
| 2026-05-01 11:47 | 50.76907 | -1.90846 | 1037 ft | 130 kts | 74° |
| 2026-05-01 11:47 | 50.77152 | -1.89486 | 956 ft | 127 kts | 77° |
| 2026-05-01 11:47 | 50.77366 | -1.88156 | 639 ft | 120 kts | 77° |
| 2026-05-01 11:47 | 50.77603 | -1.86959 | 351 ft | 108 kts | 73° |
| 2026-05-01 11:48 | 50.77753 | -1.85843 | 177 ft | 99 kts | 80° |
| 2026-05-01 11:48 | 50.77913 | -1.84827 | 50 ft | 89 kts | 78° |
| 2026-05-01 11:48 | 50.78049 | -1.83980 | 38 ft | 65 kts | 57° |
| 2026-05-01 11:48 | 50.78130 | -1.83576 | 40 ft | 11 kts | 50° |
| 2026-05-01 11:49 | 50.78121 | -1.83586 | 40 ft | 10 kts | 244° |
| 2026-05-01 11:49 | 50.78081 | -1.83802 | 38 ft | 30 kts | 254° |
| 2026-05-01 11:49 | 50.78243 | -1.83976 | 41 ft | 39 kts | 347° |
| 2026-05-01 11:49 | 50.78430 | -1.84151 | 41 ft | 31 kts | 293° |
| 2026-05-01 11:50 | 50.78528 | -1.84420 | 41 ft | 25 kts | 351° |
| 2026-05-01 11:50 | 50.78718 | -1.84461 | 41 ft | 15 kts | 352° |
| 2026-05-01 11:50 | 50.78773 | -1.84570 | 41 ft | 11 kts | 239° |
| 2026-05-01 11:50 | 50.78743 | -1.84614 | 40 ft | 0 kts | 193° |